createdAt,value
2018-06-22T00:01:59.303Z,0.67
2018-06-22T00:04:28.717Z,0.60
2018-06-22T00:06:58.058Z,1.20
2018-06-22T00:09:27.421Z,0.50
2018-06-22T00:11:56.814Z,1.10
2018-06-22T00:14:26.221Z,0.90
2018-06-22T00:16:55.646Z,1.13
2018-06-22T00:19:25.022Z,0.43
2018-06-22T00:21:54.378Z,0.60
2018-06-22T00:24:23.726Z,0.67
2018-06-22T00:26:52.824Z,0.73
2018-06-22T00:29:22.186Z,0.90
2018-06-22T00:31:55.918Z,0.80
2018-06-22T00:34:25.305Z,0.77
2018-06-22T00:36:54.631Z,0.90
2018-06-22T00:39:23.720Z,1.30
2018-06-22T00:41:57.297Z,0.60
2018-06-22T00:44:26.637Z,0.70
2018-06-22T00:46:56.002Z,0.60
2018-06-22T00:49:25.433Z,0.87
2018-06-22T00:51:54.821Z,0.70
2018-06-22T00:54:24.242Z,0.63
2018-06-22T00:56:53.633Z,0.70
2018-06-22T00:59:22.977Z,0.70
2018-06-22T01:01:53.357Z,0.70
2018-06-22T01:04:22.691Z,0.77
2018-06-22T01:06:51.840Z,0.70
2018-06-22T01:09:21.265Z,0.90
2018-06-22T01:12:13.326Z,0.70
2018-06-22T01:14:42.710Z,0.60
2018-06-22T01:17:12.102Z,0.77
2018-06-22T01:20:19.489Z,1.03
2018-06-22T01:22:48.806Z,0.80
2018-06-22T01:25:18.223Z,0.50
2018-06-22T01:27:47.609Z,0.60
2018-06-22T01:30:19.001Z,0.37
2018-06-22T01:32:48.370Z,0.90
2018-06-22T01:35:17.638Z,1.00
2018-06-22T01:37:46.945Z,0.87
2018-06-22T01:40:21.477Z,1.00
2018-06-22T01:42:50.787Z,0.90
2018-06-22T01:45:20.195Z,0.80
2018-06-22T01:47:49.590Z,0.90
2018-06-22T01:50:29.994Z,0.97
2018-06-22T01:52:59.325Z,0.60
2018-06-22T01:55:28.746Z,0.90
2018-06-22T01:57:58.209Z,0.70
2018-06-22T02:00:31.946Z,1.10
2018-06-22T02:03:01.081Z,1.00
2018-06-22T02:05:30.458Z,0.87
2018-06-22T02:07:59.953Z,1.07
2018-06-22T02:11:08.821Z,0.80
2018-06-22T02:13:38.237Z,1.03
2018-06-22T02:16:07.645Z,1.23
2018-06-22T02:18:37.265Z,0.63
2018-06-22T02:21:16.157Z,0.87
2018-06-22T02:23:45.485Z,1.03
2018-06-22T02:26:14.920Z,1.37
2018-06-22T02:28:44.284Z,0.90
2018-06-22T02:31:18.973Z,1.17
2018-06-22T02:33:48.326Z,1.83
2018-06-22T02:36:17.731Z,1.37
2018-06-22T02:38:47.137Z,1.37
2018-06-22T02:41:24.754Z,1.50
2018-06-22T02:43:54.153Z,1.50
2018-06-22T02:46:23.497Z,1.10
2018-06-22T02:48:52.965Z,1.53
2018-06-22T02:51:36.393Z,1.70
2018-06-22T02:54:05.812Z,1.40
2018-06-22T02:56:35.190Z,1.17
2018-06-22T02:59:04.681Z,1.10
2018-06-22T03:01:35.094Z,1.30
2018-06-22T03:04:04.454Z,1.03
2018-06-22T03:06:33.845Z,1.20
2018-06-22T03:09:03.185Z,1.10
2018-06-22T03:11:33.586Z,1.23
2018-06-22T03:14:02.916Z,1.10
2018-06-22T03:16:32.374Z,0.93
2018-06-22T03:19:01.531Z,1.20
2018-06-22T03:21:32.661Z,1.00
2018-06-22T03:24:01.761Z,1.07
2018-06-22T03:26:30.854Z,1.40
2018-06-22T03:29:00.030Z,1.00
2018-06-22T03:31:29.865Z,1.70
2018-06-22T03:33:58.956Z,2.23
2018-06-22T03:36:28.086Z,1.33
2018-06-22T03:38:57.103Z,1.27
2018-06-22T03:41:28.609Z,1.43
2018-06-22T03:43:58.009Z,1.07
2018-06-22T03:46:27.398Z,1.50
2018-06-22T03:48:57.018Z,1.30
2018-06-22T03:55:15.985Z,1.30
2018-06-22T03:57:45.325Z,1.10
2018-06-22T04:00:27.630Z,1.63
2018-06-22T04:02:57.050Z,1.33
2018-06-22T04:05:26.449Z,1.07
2018-06-22T04:07:55.803Z,1.20
2018-06-22T04:10:26.266Z,1.23
2018-06-22T04:12:55.632Z,1.43
2018-06-22T04:15:24.738Z,1.33
2018-06-22T04:17:55.019Z,1.10
2018-06-22T04:20:25.635Z,1.00
2018-06-22T04:22:55.144Z,1.30
2018-06-22T04:25:25.375Z,1.30
2018-06-22T04:27:54.727Z,1.83
2018-06-22T04:30:34.853Z,2.50
2018-06-22T04:33:04.318Z,1.57
2018-06-22T04:35:33.836Z,2.33
2018-06-22T04:38:03.201Z,1.73
2018-06-22T04:40:33.626Z,1.73
2018-06-22T04:43:02.957Z,1.60
2018-06-22T04:45:32.025Z,1.60
2018-06-22T04:48:01.346Z,1.60
2018-06-22T04:50:43.501Z,1.60
2018-06-22T04:53:14.313Z,1.80
2018-06-22T04:55:43.710Z,2.03
2018-06-22T04:58:13.205Z,1.97
2018-06-22T05:01:02.022Z,1.53
2018-06-22T05:03:31.444Z,1.70
2018-06-22T05:06:00.805Z,1.70
2018-06-22T05:08:30.338Z,2.03
2018-06-22T05:11:33.901Z,2.40
2018-06-22T05:14:03.307Z,2.23
2018-06-22T05:16:32.698Z,2.23
2018-06-22T05:19:02.035Z,1.97
2018-06-22T05:21:32.454Z,1.97
2018-06-22T05:24:01.870Z,2.43
2018-06-22T05:26:31.297Z,2.17
2018-06-22T05:29:00.681Z,1.93
2018-06-22T05:31:31.166Z,2.30
2018-06-22T05:34:00.590Z,2.87
2018-06-22T05:36:29.981Z,2.30
2018-06-22T05:38:59.385Z,2.17
2018-06-22T05:41:37.482Z,2.50
2018-06-22T05:44:06.886Z,2.70
2018-06-22T05:46:36.834Z,2.80
2018-06-22T05:49:06.239Z,2.87
2018-06-22T05:51:36.717Z,2.70
2018-06-22T05:54:06.073Z,2.90
2018-06-22T05:56:35.551Z,2.77
2018-06-22T05:59:04.930Z,2.20
2018-06-22T06:02:02.321Z,2.60
2018-06-22T06:04:31.751Z,2.10
2018-06-22T06:07:01.094Z,2.50
2018-06-22T06:09:30.542Z,2.37
2018-06-22T06:11:59.925Z,2.23
2018-06-22T06:14:29.326Z,2.07
2018-06-22T06:16:58.722Z,2.10
2018-06-22T06:19:27.990Z,2.33
2018-06-22T06:21:57.350Z,2.47
2018-06-22T06:24:26.460Z,2.07
2018-06-22T06:26:55.861Z,1.80
2018-06-22T06:29:25.249Z,2.03
2018-06-22T06:31:54.670Z,2.30
2018-06-22T06:34:24.096Z,1.83
2018-06-22T06:36:53.450Z,2.40
2018-06-22T06:39:22.845Z,1.63
2018-06-22T06:41:53.314Z,2.30
2018-06-22T06:44:22.632Z,2.37
2018-06-22T06:46:52.023Z,1.80
2018-06-22T06:49:21.677Z,2.23
2018-06-22T06:52:08.190Z,2.03
2018-06-22T06:54:37.562Z,2.50
2018-06-22T06:57:06.942Z,2.00
2018-06-22T06:59:36.298Z,2.10
2018-06-22T07:02:05.785Z,2.13
2018-06-22T07:04:35.162Z,1.60
2018-06-22T07:07:04.499Z,2.20
2018-06-22T07:09:33.802Z,1.77
2018-06-22T07:12:03.191Z,1.63
2018-06-22T07:14:32.570Z,1.60
2018-06-22T07:17:01.939Z,2.00
2018-06-22T07:19:31.403Z,1.80
2018-06-22T07:22:00.717Z,1.60
2018-06-22T07:24:30.105Z,1.63
2018-06-22T07:26:59.433Z,1.40
2018-06-22T07:29:28.901Z,1.70
2018-06-22T07:31:58.345Z,1.70
2018-06-22T07:34:27.725Z,1.67
2018-06-22T07:36:56.908Z,1.87
2018-06-22T07:39:26.838Z,1.40
2018-06-22T07:41:56.211Z,2.20
2018-06-22T07:44:25.630Z,1.47
2018-06-22T07:46:55.006Z,1.40
2018-06-22T07:49:24.341Z,1.30
2018-06-22T07:51:53.726Z,1.90
2018-06-22T07:54:23.109Z,1.30
2018-06-22T07:56:52.506Z,1.50
2018-06-22T07:59:21.926Z,1.50
2018-06-22T08:01:55.790Z,1.57
2018-06-22T08:04:25.237Z,1.63
2018-06-22T08:06:54.673Z,1.40
2018-06-22T08:09:24.065Z,1.83
2018-06-22T08:11:53.481Z,1.27
2018-06-22T08:14:22.884Z,1.60
2018-06-22T08:16:51.990Z,1.73
2018-06-22T08:19:21.318Z,1.97
2018-06-22T08:21:54.034Z,1.53
2018-06-22T08:24:23.442Z,1.47
2018-06-22T08:26:52.855Z,1.43
2018-06-22T08:29:22.248Z,1.37
2018-06-22T08:31:53.597Z,1.57
2018-06-22T08:34:22.922Z,1.50
2018-06-22T08:36:52.350Z,1.30
2018-06-22T08:39:21.665Z,1.50
2018-06-22T08:42:10.199Z,1.83
2018-06-22T08:44:39.545Z,1.67
2018-06-22T08:47:08.975Z,2.00
2018-06-22T08:49:50.933Z,1.60
2018-06-22T08:52:20.374Z,1.80
2018-06-22T08:54:49.693Z,2.23
2018-06-22T08:57:19.030Z,2.10
2018-06-22T09:00:16.878Z,2.07
2018-06-22T09:02:46.329Z,2.73
2018-06-22T09:05:15.710Z,2.13
2018-06-22T09:07:45.046Z,2.20
2018-06-22T09:10:15.490Z,2.50
2018-06-22T09:12:44.992Z,1.90
2018-06-22T09:15:14.363Z,2.23
2018-06-22T09:17:43.794Z,2.30
2018-06-22T09:20:22.587Z,2.00
2018-06-22T09:22:51.928Z,2.07
2018-06-22T09:25:21.295Z,2.33
2018-06-22T09:27:50.574Z,1.93
2018-06-22T09:31:01.526Z,2.50
2018-06-22T09:33:30.844Z,1.60
2018-06-22T09:36:00.303Z,1.60
2018-06-22T09:38:30.773Z,2.63
2018-06-22T09:41:41.670Z,2.10
2018-06-22T09:44:46.502Z,1.73
2018-06-22T09:47:15.882Z,2.20
2018-06-22T09:50:01.935Z,1.93
2018-06-22T09:52:31.303Z,2.20
2018-06-22T09:55:00.619Z,2.23
2018-06-22T09:57:30.082Z,2.00
2018-06-22T10:00:00.526Z,1.77
2018-06-22T10:02:29.922Z,1.90
2018-06-22T10:04:59.358Z,2.20
2018-06-22T10:07:28.678Z,1.90
2018-06-22T10:10:09.073Z,1.90
2018-06-22T10:12:38.442Z,1.80
2018-06-22T10:15:08.201Z,1.90
2018-06-22T10:17:37.564Z,2.20
2018-06-22T10:20:33.277Z,2.03
2018-06-22T10:23:02.689Z,2.17
2018-06-22T10:25:32.055Z,1.97
2018-06-22T10:28:06.152Z,1.70
2018-06-22T10:30:38.805Z,2.17
2018-06-22T10:33:07.984Z,1.60
2018-06-22T10:35:37.121Z,2.00
2018-06-22T10:38:06.453Z,2.10
2018-06-22T10:40:50.189Z,1.50
2018-06-22T10:43:19.264Z,2.00
2018-06-22T10:45:48.355Z,1.63
2018-06-22T10:48:17.414Z,1.50
2018-06-22T10:50:47.565Z,1.90
2018-06-22T10:53:16.673Z,1.60
2018-06-22T10:55:45.929Z,1.40
2018-06-22T10:58:15.361Z,1.40
2018-06-22T11:00:59.926Z,1.30
2018-06-22T11:03:29.338Z,1.10
2018-06-22T11:05:58.754Z,1.80
2018-06-22T11:08:28.252Z,1.33
2018-06-22T11:11:11.530Z,1.20
2018-06-22T11:13:40.873Z,1.77
2018-06-22T11:16:10.226Z,1.47
2018-06-22T11:18:39.642Z,1.50
2018-06-22T11:21:11.146Z,1.57
2018-06-22T11:23:40.626Z,1.30
2018-06-22T11:26:10.036Z,1.27
2018-06-22T11:28:40.308Z,1.30
2018-06-22T11:31:11.926Z,1.90
2018-06-22T11:33:41.322Z,1.13
2018-06-22T11:36:10.690Z,1.33
2018-06-22T11:38:40.074Z,1.33
2018-06-22T11:41:09.521Z,1.30
2018-06-22T11:43:38.900Z,1.50
2018-06-22T11:46:08.270Z,1.10
2018-06-22T11:48:37.637Z,1.40
2018-06-22T11:51:19.842Z,1.90
2018-06-22T11:53:49.174Z,1.77
2018-06-22T11:56:18.590Z,1.60
2018-06-22T11:58:48.082Z,1.30
2018-06-22T12:01:21.249Z,0.90
2018-06-22T12:03:50.594Z,1.10
2018-06-22T12:06:20.136Z,1.00
2018-06-22T12:08:49.529Z,1.20
2018-06-22T12:11:22.883Z,1.47
2018-06-22T12:13:52.263Z,0.90
2018-06-22T12:16:21.654Z,0.83
2018-06-22T12:18:50.716Z,0.93
2018-06-22T12:21:34.494Z,1.13
2018-06-22T12:24:03.961Z,0.87
2018-06-22T12:26:33.320Z,1.20
2018-06-22T12:29:02.743Z,1.20
2018-06-22T12:31:32.609Z,1.53
2018-06-22T12:34:02.056Z,1.00
2018-06-22T12:36:31.471Z,0.97
2018-06-22T12:39:00.837Z,0.87
2018-06-22T12:41:31.358Z,1.07
2018-06-22T12:44:00.870Z,0.83
2018-06-22T12:46:30.217Z,1.00
2018-06-22T12:48:59.566Z,1.30
2018-06-22T12:51:30.178Z,1.53
2018-06-22T12:53:59.734Z,1.13
2018-06-22T12:56:29.077Z,1.00
2018-06-22T12:58:58.449Z,0.73
2018-06-22T13:01:36.914Z,0.67
2018-06-22T13:04:09.506Z,0.73
2018-06-22T13:06:39.243Z,0.50
2018-06-22T13:09:10.979Z,0.88
2018-06-22T13:11:48.814Z,1.00
2018-06-22T13:14:19.257Z,1.10
2018-06-22T13:16:48.654Z,0.70
2018-06-22T13:19:18.381Z,0.78
2018-06-22T13:21:58.454Z,0.50
2018-06-22T13:24:27.818Z,0.65
2018-06-22T13:26:57.285Z,0.65
2018-06-22T13:29:26.702Z,0.85
2018-06-22T13:32:51.897Z,0.72
2018-06-22T13:35:21.446Z,1.00
2018-06-22T13:37:50.858Z,1.10
2018-06-22T13:40:28.370Z,1.00
2018-06-22T13:42:57.804Z,0.93
2018-06-22T13:45:27.253Z,0.70
2018-06-22T13:47:56.714Z,1.00
2018-06-22T13:50:27.138Z,0.70
2018-06-22T13:52:56.571Z,0.72
2018-06-22T13:55:25.942Z,0.80
2018-06-22T13:57:55.342Z,0.55
2018-06-22T14:00:32.999Z,1.00
2018-06-22T14:03:02.326Z,1.40
2018-06-22T14:05:36.914Z,1.45
2018-06-22T14:08:06.326Z,1.02
2018-06-22T14:10:37.947Z,0.90
2018-06-22T14:13:07.295Z,0.60
2018-06-22T14:15:36.758Z,0.80
2018-06-22T14:18:06.108Z,0.80
2018-06-22T14:20:36.654Z,0.70
2018-06-22T14:23:06.038Z,0.78
2018-06-22T14:25:35.410Z,0.80
2018-06-22T14:28:04.799Z,0.60
2018-06-22T14:30:44.072Z,0.85
2018-06-22T14:33:13.446Z,0.70
2018-06-22T14:35:42.893Z,0.80
2018-06-22T14:38:12.234Z,0.60
2018-06-22T14:40:41.468Z,0.80
2018-06-22T14:43:10.837Z,0.72
2018-06-22T14:45:40.239Z,0.70
2018-06-22T14:48:09.549Z,0.53
2018-06-22T14:50:51.635Z,0.42
2018-06-22T14:53:26.146Z,0.57
2018-06-22T14:56:00.718Z,0.70
2018-06-22T14:58:35.554Z,0.70
2018-06-22T15:01:28.841Z,0.75
2018-06-22T15:04:03.537Z,0.70
2018-06-22T15:06:38.229Z,0.60
2018-06-22T15:09:10.193Z,1.00
2018-06-22T15:11:52.573Z,1.17
2018-06-22T15:14:21.938Z,0.70
2018-06-22T15:16:51.316Z,1.00
2018-06-22T15:19:20.685Z,1.20
2018-06-22T15:22:02.932Z,0.70
2018-06-22T15:24:32.328Z,1.20
2018-06-22T15:27:01.742Z,0.73
2018-06-22T15:29:31.077Z,0.87
2018-06-22T15:32:00.722Z,0.93
2018-06-22T15:34:35.482Z,0.70
2018-06-22T15:37:10.111Z,0.90
2018-06-22T15:39:44.932Z,0.70
2018-06-22T15:42:19.846Z,0.77
2018-06-22T15:44:54.447Z,0.80
2018-06-22T15:47:29.009Z,0.90
2018-06-22T15:50:12.297Z,1.13
2018-06-22T15:52:46.785Z,0.80
2018-06-22T15:55:19.094Z,0.90
2018-06-22T15:57:48.461Z,0.70
2018-06-22T16:00:25.846Z,0.90
2018-06-22T16:03:00.615Z,0.80
2018-06-22T16:05:30.023Z,0.80
2018-06-22T16:07:59.452Z,0.90
2018-06-22T16:10:30.961Z,1.20
2018-06-22T16:13:00.331Z,0.87
2018-06-22T16:15:34.762Z,0.70
2018-06-22T16:18:09.398Z,1.03
2018-06-22T16:20:44.261Z,1.30
2018-06-22T16:23:18.892Z,1.20
2018-06-22T16:25:53.369Z,1.10
2018-06-22T16:28:22.809Z,1.13
2018-06-22T16:30:53.315Z,1.13
2018-06-22T16:33:22.682Z,0.90
2018-06-22T16:35:52.053Z,0.90
2018-06-22T16:38:21.407Z,1.03
2018-06-22T16:40:51.860Z,1.20
2018-06-22T16:43:21.329Z,1.13
2018-06-22T16:45:50.734Z,0.90
2018-06-22T16:48:20.170Z,1.30
2018-06-22T16:51:13.091Z,1.20
2018-06-22T16:53:42.626Z,1.30
2018-06-22T16:56:11.714Z,1.30
2018-06-22T16:58:41.763Z,0.97
2018-06-22T17:01:26.082Z,1.10
2018-06-22T17:03:55.506Z,1.20
2018-06-22T17:06:25.240Z,1.00
2018-06-22T17:08:59.882Z,1.30
2018-06-22T17:11:51.349Z,1.03
2018-06-22T17:14:25.933Z,1.10
2018-06-22T17:17:00.705Z,1.40
2018-06-22T17:19:30.172Z,1.03
2018-06-22T17:21:59.603Z,1.10
2018-06-22T17:24:29.006Z,1.03
2018-06-22T17:26:58.424Z,1.50
2018-06-22T17:29:27.903Z,1.67
2018-06-22T17:31:58.234Z,1.27
2018-06-22T17:34:27.650Z,1.33
2018-06-22T17:36:57.049Z,1.73
2018-06-22T17:39:26.513Z,1.50
2018-06-22T17:42:11.174Z,1.20
2018-06-22T17:44:40.600Z,1.60
2018-06-22T17:47:10.011Z,1.37
2018-06-22T17:49:39.429Z,1.27
2018-06-22T17:52:08.816Z,1.10
2018-06-22T17:54:38.241Z,1.30
2018-06-22T17:57:07.681Z,1.40
2018-06-22T17:59:42.141Z,1.60
2018-06-22T18:02:16.766Z,1.13
2018-06-22T18:04:50.208Z,2.00
2018-06-22T18:07:25.167Z,1.20
2018-06-22T18:10:01.946Z,1.40
2018-06-22T18:12:36.675Z,1.27
2018-06-22T18:15:06.417Z,1.23
2018-06-22T18:17:35.838Z,1.30
2018-06-22T18:20:08.681Z,1.40
2018-06-22T18:22:38.201Z,1.37
2018-06-22T18:25:07.606Z,1.30
2018-06-22T18:27:38.603Z,1.50
2018-06-22T18:30:36.064Z,1.40
2018-06-22T18:33:05.421Z,1.53
2018-06-22T18:35:34.806Z,1.20
2018-06-22T18:38:04.271Z,0.80
2018-06-22T18:40:38.838Z,1.20
2018-06-22T18:43:12.312Z,1.30
2018-06-22T18:45:41.730Z,1.50
2018-06-22T18:48:11.095Z,1.20
2018-06-22T18:50:48.710Z,1.10
2018-06-22T18:53:23.778Z,1.40
2018-06-22T18:55:58.415Z,1.33
2018-06-22T18:58:32.813Z,1.00
2018-06-22T19:01:14.750Z,1.80
2018-06-22T19:03:48.145Z,1.43
2018-06-22T19:06:17.821Z,1.50
2018-06-22T19:08:47.325Z,1.27
2018-06-22T19:11:39.697Z,1.20
2018-06-22T19:14:09.603Z,1.10
2018-06-22T19:16:40.421Z,1.10
2018-06-22T19:19:09.993Z,1.50
2018-06-22T19:21:44.251Z,1.57
2018-06-22T19:24:13.659Z,0.93
2018-06-22T19:26:57.371Z,1.20
2018-06-22T19:29:26.773Z,1.37
2018-06-22T19:33:00.194Z,1.30
2018-06-22T19:35:29.582Z,1.60
2018-06-22T19:37:58.996Z,1.60
2018-06-22T19:41:10.149Z,1.23
2018-06-22T19:43:44.486Z,1.57
2018-06-22T19:46:19.028Z,2.03
2018-06-22T19:48:53.621Z,1.63
2018-06-22T19:51:28.553Z,0.90
2018-06-22T19:54:00.746Z,1.27
2018-06-22T19:56:30.165Z,1.20
2018-06-22T19:58:59.541Z,1.13
2018-06-22T20:01:43.482Z,1.30
2018-06-22T20:04:12.582Z,1.27
2018-06-22T20:06:41.675Z,1.10
2018-06-22T20:09:11.482Z,1.10
2018-06-22T20:11:41.937Z,0.90
2018-06-22T20:14:11.315Z,0.97
2018-06-22T20:16:40.669Z,0.97
2018-06-22T20:19:10.289Z,0.90
2018-06-22T20:21:43.806Z,0.80
2018-06-22T20:24:13.230Z,0.80
2018-06-22T20:26:42.619Z,0.70
2018-06-22T20:29:12.062Z,1.07
2018-06-22T20:32:15.329Z,0.80
2018-06-22T20:35:49.828Z,1.00
2018-06-22T20:38:24.129Z,0.93
2018-06-22T20:40:59.587Z,0.73
2018-06-22T20:44:32.701Z,0.80
2018-06-22T20:47:07.623Z,0.83
2018-06-22T20:49:44.300Z,1.00
2018-06-22T20:52:13.658Z,0.90
2018-06-22T20:54:43.073Z,0.90
2018-06-22T20:57:12.418Z,0.80
2018-06-22T20:59:55.742Z,0.90
2018-06-22T21:02:25.121Z,1.10
2018-06-22T21:04:54.580Z,1.10
2018-06-22T21:07:23.954Z,2.80
2018-06-22T21:10:32.069Z,2.30
2018-06-22T21:13:01.807Z,2.37
2018-06-22T21:15:30.884Z,1.90
2018-06-22T21:18:00.419Z,0.90
2018-06-22T21:21:35.242Z,1.30
2018-06-22T21:24:04.663Z,0.73
2018-06-22T21:26:34.050Z,0.90
2018-06-22T21:29:08.540Z,0.90
2018-06-22T21:32:00.459Z,1.10
2018-06-22T21:34:33.422Z,1.03
2018-06-22T21:37:07.928Z,1.03
2018-06-22T21:39:37.253Z,1.00
2018-06-22T21:42:06.718Z,1.13
2018-06-22T21:44:36.109Z,1.17
2018-06-22T21:47:05.545Z,1.20
2018-06-22T21:49:34.834Z,0.77
2018-06-22T21:52:04.286Z,0.90
2018-06-22T21:54:33.706Z,1.10
2018-06-22T21:57:03.194Z,1.43
2018-06-22T21:59:32.590Z,1.20
2018-06-22T22:02:02.002Z,1.10
2018-06-22T22:04:31.469Z,1.13
2018-06-22T22:07:01.042Z,1.17
2018-06-22T22:09:34.521Z,1.00
2018-06-22T22:12:03.915Z,1.27
2018-06-22T22:14:33.237Z,1.47
2018-06-22T22:17:02.396Z,1.07
2018-06-22T22:19:31.773Z,1.10
2018-06-22T22:22:01.143Z,1.30
2018-06-22T22:24:30.521Z,1.30
2018-06-22T22:26:59.921Z,1.00
2018-06-22T22:29:29.338Z,1.10
2018-06-22T22:31:58.751Z,1.33
2018-06-22T22:34:28.143Z,1.23
2018-06-22T22:36:57.481Z,1.37
2018-06-22T22:39:26.857Z,1.93
2018-06-22T22:41:57.301Z,1.93
2018-06-22T22:44:26.729Z,1.70
2018-06-22T22:46:56.110Z,1.77
2018-06-22T22:49:25.420Z,1.47
2018-06-22T22:51:59.813Z,1.50
2018-06-22T22:54:29.169Z,1.60
2018-06-22T22:56:58.254Z,1.50
2018-06-22T22:59:27.622Z,1.30
2018-06-22T23:02:19.062Z,1.10
2018-06-22T23:04:48.426Z,1.40
2018-06-22T23:07:17.893Z,2.00
2018-06-22T23:09:56.376Z,1.80
2018-06-22T23:12:25.797Z,1.57
2018-06-22T23:14:55.162Z,2.17
2018-06-22T23:17:24.574Z,1.90
2018-06-22T23:20:12.442Z,1.90
2018-06-22T23:22:58.963Z,1.87
2018-06-22T23:25:28.305Z,2.10
2018-06-22T23:27:57.637Z,1.80
2018-06-22T23:30:38.837Z,1.97
2018-06-22T23:33:08.226Z,1.77
2018-06-22T23:35:37.615Z,1.80
2018-06-22T23:38:07.210Z,1.87
2018-06-22T23:40:54.858Z,1.90
2018-06-22T23:43:24.253Z,1.93
2018-06-22T23:45:53.667Z,2.00
2018-06-22T23:48:23.097Z,2.20
2018-06-22T23:51:02.321Z,2.17
2018-06-22T23:53:31.685Z,1.87
2018-06-22T23:56:01.049Z,2.10
2018-06-22T23:58:30.410Z,2.40
